Time;durP1;ratioP1;P1;durP2;ratioP2;P2;SDS_P1;SDS_P2;PMS_P1;PMS_P2;Temp;Humidity;BMP_temperature;BMP_pressure;BME280_temperature;BME280_humidity;BME280_pressure;Samples;Min_cycle;Max_cycle;Signal;HPM_P1;HPM_P2
2022/01/11 00:07:18;;;;;;;18.55;4.65;;;1.20;99.90;;;;;;19882861;29;20727;-44
2022/01/11 00:17:19;;;;;;;17.17;3.17;;;1.00;99.90;;;;;;19879952;29;20213;-44
2022/01/11 00:27:21;;;;;;;12.13;5.53;;;1.10;99.90;;;;;;19882091;29;20111;-44
2022/01/11 00:37:22;;;;;;;11.43;4.15;;;1.20;99.90;;;;;;19875963;29;20050;-44
2022/01/11 00:47:23;;;;;;;11.73;4.20;;;1.20;99.90;;;;;;19861852;29;20470;-44
2022/01/11 00:57:25;;;;;;;14.63;3.83;;;1.20;99.90;;;;;;19871849;29;20074;-44
2022/01/11 01:07:26;;;;;;;11.20;4.60;;;1.20;99.90;;;;;;19871445;29;20050;-45
2022/01/11 01:17:27;;;;;;;22.65;6.53;;;1.30;99.90;;;;;;19879529;29;20561;-44
2022/01/11 01:27:29;;;;;;;15.85;4.43;;;1.20;99.90;;;;;;19872325;29;20420;-45
2022/01/11 01:37:30;;;;;;;17.33;5.55;;;1.30;99.90;;;;;;19868112;29;20059;-44
2022/01/11 01:47:35;;;;;;;15.55;4.30;;;1.20;99.90;;;;;;19861219;29;20066;-44
2022/01/11 01:57:36;;;;;;;10.32;4.38;;;1.20;99.90;;;;;;19869228;29;20484;-44
2022/01/11 02:07:37;;;;;;;9.48;3.10;;;1.30;99.90;;;;;;19859773;29;20424;-44
2022/01/11 02:17:39;;;;;;;21.25;6.15;;;1.30;99.90;;;;;;19865845;29;20185;-44
2022/01/11 02:27:40;;;;;;;23.17;3.97;;;1.30;99.90;;;;;;19861517;29;20573;-44
2022/01/11 02:37:43;;;;;;;22.88;6.18;;;1.30;99.90;;;;;;19846776;29;20065;-45
2022/01/11 02:47:47;;;;;;;22.98;4.88;;;1.30;99.90;;;;;;19862124;29;20070;-44
2022/01/11 02:57:48;;;;;;;26.60;6.82;;;1.30;99.90;;;;;;19862373;29;20031;-44
2022/01/11 03:07:49;;;;;;;18.05;4.78;;;1.40;99.90;;;;;;19871169;29;20065;-44
2022/01/11 03:17:50;;;;;;;20.23;5.50;;;1.20;99.90;;;;;;19863491;29;20035;-44
2022/01/11 03:27:52;;;;;;;22.60;5.30;;;1.20;99.90;;;;;;19863279;29;20054;-44
2022/01/11 03:37:53;;;;;;;14.15;3.65;;;1.30;99.90;;;;;;19869891;29;20439;-44
2022/01/11 03:47:57;;;;;;;30.63;5.72;;;1.20;99.90;;;;;;19864959;29;20067;-44
2022/01/11 03:57:58;;;;;;;24.83;5.38;;;1.30;99.90;;;;;;19867200;29;20388;-44
2022/01/11 04:07:59;;;;;;;20.17;4.78;;;1.40;99.90;;;;;;19867463;29;20047;-44
2022/01/11 04:18:00;;;;;;;16.92;5.57;;;1.30;99.90;;;;;;19872641;29;20050;-44
2022/01/11 04:28:02;;;;;;;19.70;6.40;;;1.40;99.90;;;;;;19882266;29;20093;-44
2022/01/11 04:38:03;;;;;;;20.63;4.90;;;1.50;99.90;;;;;;19872527;29;20050;-45
2022/01/11 04:48:05;;;;;;;21.30;5.40;;;1.50;99.90;;;;;;19879366;29;20066;-44
2022/01/11 04:58:06;;;;;;;17.80;4.90;;;1.50;99.90;;;;;;19878289;29;20398;-44
2022/01/11 05:08:07;;;;;;;23.83;5.90;;;1.50;99.90;;;;;;19871239;29;20518;-44
2022/01/11 05:18:09;;;;;;;21.30;4.88;;;1.30;99.90;;;;;;19875048;29;20050;-44
2022/01/11 05:28:10;;;;;;;23.10;5.50;;;1.30;99.90;;;;;;19880745;29;20069;-44
2022/01/11 05:38:11;;;;;;;14.10;5.70;;;1.30;99.90;;;;;;19875149;29;20408;-44
2022/01/11 05:48:12;;;;;;;21.50;5.60;;;1.30;99.90;;;;;;19870156;29;20062;-44
2022/01/11 05:58:13;;;;;;;18.10;5.00;;;1.40;99.90;;;;;;19874117;29;20039;-45
2022/01/11 06:08:16;;;;;;;12.93;4.35;;;1.30;99.90;;;;;;19877846;29;20047;-45
2022/01/11 06:18:18;;;;;;;18.98;4.63;;;1.30;99.90;;;;;;19891011;29;20051;-44
2022/01/11 06:28:19;;;;;;;22.25;5.50;;;1.30;99.90;;;;;;19876692;29;20050;-44
2022/01/11 06:38:21;;;;;;;19.80;5.28;;;1.40;99.90;;;;;;19872655;29;20388;-44
2022/01/11 06:48:22;;;;;;;16.02;5.20;;;1.50;99.90;;;;;;19871930;29;20406;-44
2022/01/11 06:58:23;;;;;;;13.63;4.85;;;1.40;99.90;;;;;;19873483;29;20050;-45
2022/01/11 07:08:24;;;;;;;12.18;4.63;;;1.50;99.90;;;;;;19885184;29;20054;-44
2022/01/11 07:18:26;;;;;;;19.17;4.15;;;1.50;99.90;;;;;;19880773;29;20054;-44
2022/01/11 07:28:27;;;;;;;19.80;6.30;;;1.50;99.90;;;;;;19870614;29;20054;-44
2022/01/11 07:38:28;;;;;;;12.20;4.70;;;1.40;99.90;;;;;;19874800;29;20054;-44
2022/01/11 07:48:29;;;;;;;13.40;4.65;;;1.50;99.90;;;;;;19876050;29;20436;-44
2022/01/11 07:58:30;;;;;;;19.25;4.80;;;1.50;99.90;;;;;;19885557;29;20061;-44
2022/01/11 08:08:31;;;;;;;15.38;5.10;;;1.50;99.90;;;;;;19860338;29;20055;-44
2022/01/11 08:18:33;;;;;;;15.43;4.50;;;1.50;99.90;;;;;;19889347;29;20042;-44
2022/01/11 08:28:34;;;;;;;11.43;3.33;;;1.50;99.90;;;;;;19889356;29;20454;-44
2022/01/11 08:38:35;;;;;;;16.63;6.35;;;1.70;99.90;;;;;;19883327;29;20517;-45
2022/01/11 08:48:36;;;;;;;12.80;3.20;;;1.60;99.90;;;;;;19881832;29;20063;-44
2022/01/11 08:58:37;;;;;;;11.82;3.10;;;1.80;99.90;;;;;;19873377;29;20039;-44
2022/01/11 09:08:39;;;;;;;13.27;3.97;;;1.80;99.90;;;;;;19824216;29;20080;-44
2022/01/11 09:18:40;;;;;;;14.98;4.13;;;2.00;99.90;;;;;;19860163;29;20041;-45
2022/01/11 09:28:41;;;;;;;8.77;3.25;;;2.10;99.90;;;;;;19861427;29;20042;-45
2022/01/11 09:38:45;;;;;;;9.15;2.63;;;2.10;99.90;;;;;;19868981;29;20046;-45
2022/01/11 09:48:48;;;;;;;13.10;3.28;;;2.20;99.90;;;;;;19876135;29;20050;-45
2022/01/11 09:58:49;;;;;;;14.85;3.42;;;2.30;99.90;;;;;;19869592;29;20042;-45
2022/01/11 10:09:06;;;;;;;9.43;2.55;;;2.20;99.90;;;;;;19862739;29;20054;-45
2022/01/11 10:19:22;;;;;;;13.00;3.90;;;2.20;99.90;;;;;;19866926;29;20035;-45
2022/01/11 10:29:31;;;;;;;9.87;3.10;;;2.20;99.90;;;;;;19852991;29;20242;-45
2022/01/11 10:39:41;;;;;;;9.30;2.53;;;2.40;99.90;;;;;;19870393;29;20054;-44
2022/01/11 10:49:42;;;;;;;10.07;2.80;;;2.50;99.90;;;;;;19867663;29;20054;-44
2022/01/11 10:59:43;;;;;;;12.13;3.30;;;2.90;99.90;;;;;;19883787;29;20042;-45
2022/01/11 11:09:46;;;;;;;8.43;2.55;;;3.00;99.90;;;;;;19870637;29;20057;-45
2022/01/11 11:19:59;;;;;;;8.57;3.13;;;3.00;99.90;;;;;;19880013;29;20042;-45
2022/01/11 11:30:00;;;;;;;10.43;3.13;;;3.50;99.90;;;;;;19825125;29;20070;-45
2022/01/11 11:40:15;;;;;;;7.75;3.53;;;4.50;99.90;;;;;;19848151;29;20062;-45
2022/01/11 11:50:21;;;;;;;6.53;2.92;;;5.40;99.90;;;;;;19863516;29;20054;-45
2022/01/11 12:00:26;;;;;;;8.43;2.83;;;6.30;99.90;;;;;;19862477;29;21938;-45
2022/01/11 12:10:49;;;;;;;7.65;3.53;;;7.00;99.90;;;;;;19862995;29;20203;-45
2022/01/11 12:20:52;;;;;;;8.75;2.45;;;7.90;99.90;;;;;;19854191;29;20563;-45
2022/01/11 12:31:22;;;;;;;9.23;2.47;;;7.80;99.90;;;;;;19861482;29;20406;-45
2022/01/11 12:41:33;;;;;;;9.23;3.60;;;6.50;99.90;;;;;;19869227;29;20050;-45
2022/01/11 12:51:51;;;;;;;7.78;2.40;;;6.10;99.90;;;;;;19860186;29;20443;-44
2022/01/11 13:02:08;;;;;;;6.90;2.67;;;6.00;99.90;;;;;;19863127;29;21010;-45
2022/01/11 13:12:09;;;;;;;7.07;1.87;;;6.00;99.90;;;;;;19836088;29;20065;-44
2022/01/11 13:22:12;;;;;;;7.68;2.65;;;6.00;99.90;;;;;;19872991;29;20411;-45
2022/01/11 13:32:13;;;;;;;7.30;2.60;;;6.10;99.90;;;;;;19871936;29;20057;-45
2022/01/11 13:42:14;;;;;;;8.27;2.78;;;7.50;99.90;;;;;;19873192;29;20512;-45
2022/01/11 13:52:17;;;;;;;6.03;2.33;;;7.30;99.90;;;;;;19874049;29;20066;-45
2022/01/11 14:02:20;;;;;;;7.38;2.22;;;7.10;99.90;;;;;;19878528;29;20047;-45
2022/01/11 14:12:25;;;;;;;9.38;2.50;;;6.60;99.90;;;;;;19874291;29;20047;-45
2022/01/11 14:22:40;;;;;;;5.93;2.58;;;6.50;99.90;;;;;;19872564;29;20073;-45
2022/01/11 14:32:59;;;;;;;8.70;3.03;;;6.20;99.90;;;;;;19878923;29;20054;-45
2022/01/11 14:43:16;;;;;;;5.70;2.35;;;6.00;99.90;;;;;;19867813;29;20058;-45
2022/01/11 14:53:27;;;;;;;10.98;3.35;;;6.00;99.90;;;;;;19862090;29;20051;-45
2022/01/11 15:03:35;;;;;;;11.43;2.78;;;6.00;99.90;;;;;;19866580;29;20057;-45
2022/01/11 15:13:39;;;;;;;8.52;2.38;;;6.00;99.90;;;;;;19865182;29;20050;-45
2022/01/11 15:23:40;;;;;;;5.45;1.75;;;5.90;99.90;;;;;;19862670;29;20046;-45
2022/01/11 15:33:42;;;;;;;5.95;2.72;;;5.80;99.90;;;;;;19858398;29;20065;-45
2022/01/11 15:43:45;;;;;;;7.43;2.50;;;5.70;99.90;;;;;;19862390;29;20054;-45
2022/01/11 15:53:48;;;;;;;7.47;2.70;;;5.70;99.90;;;;;;19867621;29;20222;-45
2022/01/11 16:03:50;;;;;;;9.00;3.10;;;5.50;99.90;;;;;;19864200;29;20050;-46
2022/01/11 16:13:51;;;;;;;11.40;2.85;;;5.40;99.90;;;;;;19862087;29;20047;-45
2022/01/11 16:23:52;;;;;;;9.93;2.90;;;5.40;99.90;;;;;;19821572;29;20101;-45
2022/01/11 16:33:53;;;;;;;6.10;2.58;;;5.40;99.90;;;;;;19876313;29;20050;-45
2022/01/11 16:43:54;;;;;;;8.18;2.83;;;5.30;99.90;;;;;;19880138;29;20051;-46
2022/01/11 16:53:55;;;;;;;10.27;3.45;;;5.20;99.90;;;;;;19875194;29;20054;-45
2022/01/11 17:03:57;;;;;;;8.88;3.15;;;5.10;99.90;;;;;;19865237;29;20059;-45
2022/01/11 17:13:58;;;;;;;11.00;2.72;;;4.90;99.90;;;;;;19885253;29;20035;-45
2022/01/11 17:24:00;;;;;;;9.48;2.55;;;4.80;99.90;;;;;;19867842;29;20070;-45
2022/01/11 17:34:01;;;;;;;9.18;3.60;;;4.60;99.90;;;;;;19866935;29;20039;-45
2022/01/11 17:44:05;;;;;;;6.03;2.80;;;4.50;99.90;;;;;;19867327;29;20046;-45
2022/01/11 17:54:06;;;;;;;7.00;2.20;;;4.40;99.90;;;;;;19867977;29;20410;-46
2022/01/11 18:04:07;;;;;;;6.90;3.33;;;4.30;99.90;;;;;;19891269;29;20425;-45
2022/01/11 18:14:10;;;;;;;7.32;3.78;;;4.40;99.90;;;;;;19903259;29;20038;-45
2022/01/11 18:24:13;;;;;;;9.73;2.88;;;4.40;99.90;;;;;;19910181;29;20093;-45
2022/01/11 18:34:14;;;;;;;8.55;3.17;;;4.40;99.90;;;;;;19889982;29;20041;-46
2022/01/11 18:44:15;;;;;;;5.50;2.67;;;4.50;99.90;;;;;;19893064;29;20062;-45
2022/01/11 18:54:16;;;;;;;8.02;2.97;;;4.50;99.90;;;;;;19888120;29;20062;-45
2022/01/11 19:04:17;;;;;;;9.40;3.50;;;4.50;99.90;;;;;;19906595;29;20527;-45
2022/01/11 19:14:19;;;;;;;9.88;3.28;;;4.50;99.90;;;;;;19895639;29;20054;-45
2022/01/11 19:24:20;;;;;;;9.35;3.83;;;4.50;99.90;;;;;;19903683;29;20042;-45
2022/01/11 19:34:22;;;;;;;8.45;3.33;;;4.50;99.90;;;;;;19908026;29;20036;-45
2022/01/11 19:44:23;;;;;;;9.23;3.28;;;4.40;99.90;;;;;;19905675;29;20062;-46
2022/01/11 19:54:25;;;;;;;10.10;2.70;;;4.40;99.90;;;;;;19933719;29;20061;-45
2022/01/11 20:04:27;;;;;;;8.55;2.97;;;4.40;99.90;;;;;;19941821;29;20042;-45
2022/01/11 20:14:28;;;;;;;7.97;2.92;;;4.50;99.90;;;;;;19943300;29;20042;-45
2022/01/11 20:34:49;;;;;;;12.73;3.63;;;4.60;99.90;;;;;;19929285;29;20533;-45
2022/01/11 20:44:55;;;;;;;13.95;4.15;;;4.40;99.90;;;;;;19934790;29;20046;-45
2022/01/11 20:54:57;;;;;;;9.70;3.60;;;4.40;99.90;;;;;;19909243;29;20052;-45
2022/01/11 21:04:58;;;;;;;11.05;4.13;;;4.20;99.90;;;;;;19915267;29;20054;-45
2022/01/11 21:15:05;;;;;;;9.45;3.70;;;4.10;99.90;;;;;;19886247;29;20054;-46
2022/01/11 21:25:09;;;;;;;9.27;4.47;;;4.10;99.90;;;;;;19912281;29;20086;-45
2022/01/11 21:35:10;;;;;;;12.38;5.00;;;4.00;99.90;;;;;;19909024;29;20049;-46
2022/01/11 21:45:12;;;;;;;10.38;4.18;;;4.00;99.90;;;;;;19895594;29;20069;-45
2022/01/11 21:55:18;;;;;;;18.90;4.03;;;4.00;99.90;;;;;;19860717;29;20051;-45
2022/01/11 22:05:19;;;;;;;12.43;4.05;;;4.00;99.90;;;;;;19860334;29;20062;-45
2022/01/11 22:25:39;;;;;;;16.85;4.95;;;4.10;99.90;;;;;;19862307;29;20039;-45
2022/01/11 22:35:41;;;;;;;11.77;4.55;;;4.10;99.90;;;;;;19858720;29;20049;-45
2022/01/11 22:45:46;;;;;;;16.85;5.55;;;4.10;99.90;;;;;;19862334;29;20058;-45
2022/01/11 22:55:48;;;;;;;15.98;4.72;;;4.10;99.90;;;;;;19857905;29;20050;-45
2022/01/11 23:05:49;;;;;;;17.30;5.22;;;4.20;99.90;;;;;;19858834;29;20055;-45
2022/01/11 23:15:50;;;;;;;20.58;5.40;;;4.20;99.90;;;;;;19858677;29;20047;-45
2022/01/11 23:25:52;;;;;;;15.10;3.97;;;4.20;99.90;;;;;;19848980;29;20213;-45
2022/01/11 23:35:54;;;;;;;15.60;5.10;;;4.20;99.90;;;;;;19853594;29;20039;-45
2022/01/11 23:46:05;;;;;;;17.17;4.57;;;4.20;99.90;;;;;;19851479;29;20442;-45
2022/01/11 23:56:08;;;;;;;19.25;5.15;;;4.30;99.90;;;;;;19859071;29;20402;-45
